createdAt,value
2017-06-04T00:01:29.059Z,18.70
2017-06-04T00:03:56.600Z,18.60
2017-06-04T00:06:24.127Z,18.60
2017-06-04T00:08:51.690Z,18.60
2017-06-04T00:11:19.208Z,18.50
2017-06-04T00:13:46.736Z,18.50
2017-06-04T00:16:14.279Z,18.50
2017-06-04T00:18:41.804Z,18.50
2017-06-04T00:21:09.343Z,18.50
2017-06-04T00:23:36.870Z,18.50
2017-06-04T00:26:04.407Z,18.50
2017-06-04T00:28:31.931Z,18.60
2017-06-04T00:30:59.479Z,18.60
2017-06-04T00:33:26.998Z,18.60
2017-06-04T00:35:54.530Z,18.50
2017-06-04T00:38:22.070Z,18.50
2017-06-04T00:40:49.595Z,18.50
2017-06-04T00:43:17.907Z,18.50
2017-06-04T00:45:45.434Z,18.40
2017-06-04T00:48:13.747Z,18.40
2017-06-04T00:50:41.271Z,18.40
2017-06-04T00:53:08.814Z,18.40
2017-06-04T00:55:36.351Z,18.40
2017-06-04T00:58:03.875Z,18.30
2017-06-04T01:00:32.211Z,18.40
2017-06-04T01:02:59.736Z,18.40
2017-06-04T01:05:27.310Z,18.40
2017-06-04T01:07:54.923Z,18.50
2017-06-04T01:10:23.219Z,18.60
2017-06-04T01:12:50.762Z,18.50
2017-06-04T01:15:19.054Z,18.60
2017-06-04T01:17:47.363Z,18.60
2017-06-04T01:20:14.892Z,18.60
2017-06-04T01:22:42.411Z,18.60
2017-06-04T01:25:09.953Z,18.50
2017-06-04T01:27:38.263Z,18.30
2017-06-04T01:30:05.791Z,18.30
2017-06-04T01:32:34.104Z,18.10
2017-06-04T01:35:01.627Z,18.10
2017-06-04T01:37:29.935Z,17.70
2017-06-04T01:39:57.454Z,17.70
2017-06-04T01:42:25.793Z,17.60
2017-06-04T01:44:53.319Z,17.60
2017-06-04T01:47:21.608Z,17.60
2017-06-04T01:49:49.154Z,17.60
2017-06-04T01:52:17.448Z,17.60
2017-06-04T01:54:44.996Z,17.60
2017-06-04T01:57:13.283Z,17.80
2017-06-04T01:59:40.807Z,17.80
2017-06-04T02:02:08.350Z,17.80
2017-06-04T02:04:35.875Z,17.80
2017-06-04T02:07:03.418Z,17.80
2017-06-04T02:09:30.947Z,17.70
2017-06-04T02:11:58.511Z,17.60
2017-06-04T02:14:26.035Z,17.40
2017-06-04T02:16:53.556Z,17.40
2017-06-04T02:19:21.096Z,17.40
2017-06-04T02:21:48.614Z,17.40
2017-06-04T02:24:16.183Z,17.50
2017-06-04T02:26:43.707Z,17.50
2017-06-04T02:29:11.227Z,17.60
2017-06-04T02:31:38.771Z,17.60
2017-06-04T02:34:06.294Z,17.60
2017-06-04T02:36:33.839Z,17.50
2017-06-04T02:39:01.360Z,17.40
2017-06-04T02:41:28.882Z,17.20
2017-06-04T02:43:56.422Z,17.20
2017-06-04T02:46:23.955Z,17.20
2017-06-04T02:48:52.268Z,17.30
2017-06-04T02:51:19.795Z,17.30
2017-06-04T02:53:48.127Z,17.40
2017-06-04T02:56:15.651Z,17.40
2017-06-04T02:58:43.176Z,17.40
2017-06-04T03:01:11.532Z,17.40
2017-06-04T03:03:39.055Z,17.40
2017-06-04T03:06:06.595Z,17.40
2017-06-04T03:08:34.879Z,17.30
2017-06-04T03:11:02.443Z,17.30
2017-06-04T03:13:29.970Z,17.30
2017-06-04T03:15:57.495Z,17.20
2017-06-04T03:18:25.040Z,17.20
2017-06-04T03:20:52.568Z,17.20
2017-06-04T03:23:20.871Z,17.30
2017-06-04T03:25:48.399Z,17.30
2017-06-04T03:28:16.707Z,17.30
2017-06-04T03:30:44.231Z,17.30
2017-06-04T03:33:12.564Z,17.40
2017-06-04T03:35:40.096Z,17.40
2017-06-04T03:38:07.623Z,17.40
2017-06-04T03:40:35.161Z,17.40
2017-06-04T03:43:02.684Z,17.40
2017-06-04T03:45:30.228Z,17.40
2017-06-04T03:47:57.751Z,17.20
2017-06-04T03:50:25.291Z,17.10
2017-06-04T03:52:52.815Z,17.00
2017-06-04T03:55:20.358Z,16.90
2017-06-04T03:57:47.884Z,16.90
2017-06-04T04:00:15.416Z,17.00
2017-06-04T04:02:42.955Z,17.10
2017-06-04T04:05:10.481Z,17.10
2017-06-04T04:07:38.793Z,17.00
2017-06-04T04:10:06.319Z,17.00
2017-06-04T04:12:34.631Z,17.00
2017-06-04T04:15:02.147Z,17.00
2017-06-04T04:17:30.467Z,17.00
2017-06-04T04:19:57.991Z,16.90
2017-06-04T04:22:25.514Z,17.00
2017-06-04T04:24:53.055Z,17.00
2017-06-04T04:27:20.575Z,17.00
2017-06-04T04:29:48.887Z,17.20
2017-06-04T04:32:16.411Z,17.10
2017-06-04T04:34:44.721Z,17.20
2017-06-04T04:37:12.247Z,17.10
2017-06-04T04:39:40.570Z,17.10
2017-06-04T04:42:08.098Z,17.10
2017-06-04T04:44:35.623Z,17.20
2017-06-04T04:47:03.163Z,17.20
2017-06-04T04:49:30.692Z,17.10
2017-06-04T04:51:58.236Z,17.10
2017-06-04T04:54:25.767Z,17.10
2017-06-04T04:56:54.079Z,16.90
2017-06-04T04:59:21.604Z,16.90
2017-06-04T05:01:49.938Z,16.80
2017-06-04T05:04:17.459Z,16.80
2017-06-04T05:06:44.979Z,16.70
2017-06-04T05:09:12.525Z,16.60
2017-06-04T05:11:40.082Z,16.60
2017-06-04T05:14:07.626Z,16.60
2017-06-04T05:16:35.918Z,16.60
2017-06-04T05:19:03.468Z,16.60
2017-06-04T05:21:31.756Z,16.60
2017-06-04T05:24:04.030Z,16.60
2017-06-04T05:26:31.552Z,16.60
2017-06-04T05:28:59.100Z,16.50
2017-06-04T05:31:26.622Z,16.50
2017-06-04T05:33:54.178Z,16.50
2017-06-04T05:36:21.704Z,16.50
2017-06-04T05:38:49.226Z,16.60
2017-06-04T05:41:16.771Z,16.60
2017-06-04T05:43:44.298Z,16.60
2017-06-04T05:46:12.611Z,16.70
2017-06-04T05:48:40.134Z,16.70
2017-06-04T05:51:07.679Z,16.70
2017-06-04T05:53:35.204Z,16.70
2017-06-04T05:56:02.751Z,16.70
2017-06-04T05:58:30.276Z,16.60
2017-06-04T06:00:57.806Z,16.70
2017-06-04T06:03:26.114Z,16.70
2017-06-04T06:05:53.635Z,16.70
2017-06-04T06:08:21.170Z,16.70
2017-06-04T06:10:49.450Z,16.60
2017-06-04T06:13:17.762Z,16.60
2017-06-04T06:15:45.291Z,16.60
2017-06-04T06:18:13.598Z,16.70
2017-06-04T06:20:41.124Z,16.60
2017-06-04T06:23:09.411Z,16.50
2017-06-04T06:25:37.711Z,16.60
2017-06-04T06:28:05.233Z,16.50
2017-06-04T06:30:32.775Z,16.60
2017-06-04T06:33:00.303Z,16.70
2017-06-04T06:35:27.852Z,16.70
2017-06-04T06:37:55.376Z,16.70
2017-06-04T06:40:22.939Z,16.60
2017-06-04T06:42:50.462Z,16.60
2017-06-04T06:45:18.767Z,16.60
2017-06-04T06:47:46.310Z,16.60
2017-06-04T06:50:13.831Z,16.60
2017-06-04T06:52:41.370Z,16.60
2017-06-04T06:55:08.891Z,16.50
2017-06-04T06:57:36.468Z,16.50
2017-06-04T07:00:04.015Z,16.50
2017-06-04T07:02:31.553Z,16.50
2017-06-04T07:04:59.859Z,16.60
2017-06-04T07:07:27.383Z,16.60
2017-06-04T07:09:55.703Z,16.60
2017-06-04T07:12:23.228Z,16.60
2017-06-04T07:14:50.769Z,16.70
2017-06-04T07:17:18.298Z,16.70
2017-06-04T07:19:45.867Z,16.70
2017-06-04T07:22:13.396Z,16.70
2017-06-04T07:24:41.695Z,16.70
2017-06-04T07:27:09.242Z,16.70
2017-06-04T07:29:37.531Z,16.80
2017-06-04T07:32:05.075Z,16.90
2017-06-04T07:34:32.603Z,16.90
2017-06-04T07:37:00.148Z,17.10
2017-06-04T07:39:27.699Z,17.30
2017-06-04T07:41:55.259Z,17.40
2017-06-04T07:44:22.785Z,17.50
2017-06-04T07:46:51.078Z,17.50
2017-06-04T07:49:18.638Z,17.50
2017-06-04T07:51:46.180Z,17.70
2017-06-04T07:54:14.489Z,18.00
2017-06-04T07:56:42.007Z,18.10
2017-06-04T07:59:09.574Z,18.20
2017-06-04T08:01:37.101Z,18.40
2017-06-04T08:04:04.623Z,18.70
2017-06-04T08:06:32.175Z,19.10
2017-06-04T08:09:00.470Z,19.80
2017-06-04T08:11:28.016Z,19.80
2017-06-04T08:13:55.536Z,20.20
2017-06-04T08:16:23.079Z,20.20
2017-06-04T08:18:50.599Z,19.90
2017-06-04T08:21:18.214Z,19.60
2017-06-04T08:23:45.749Z,19.40
2017-06-04T08:26:13.274Z,19.20
2017-06-04T08:28:40.827Z,19.00
2017-06-04T08:31:08.356Z,18.60
2017-06-04T08:33:35.899Z,18.30
2017-06-04T08:36:04.191Z,18.10
2017-06-04T08:38:31.731Z,18.10
2017-06-04T08:41:00.022Z,18.00
2017-06-04T08:43:28.351Z,17.90
2017-06-04T08:45:55.874Z,17.80
2017-06-04T08:48:23.404Z,17.70
2017-06-04T08:50:51.720Z,17.50
2017-06-04T08:53:19.246Z,17.50
2017-06-04T08:55:47.554Z,17.80
2017-06-04T08:58:15.081Z,17.80
2017-06-04T09:00:43.400Z,18.40
2017-06-04T09:03:10.928Z,18.40
2017-06-04T09:05:39.255Z,18.80
2017-06-04T09:08:06.782Z,18.80
2017-06-04T09:10:34.309Z,18.70
2017-06-04T09:13:01.850Z,18.30
2017-06-04T09:15:29.373Z,18.20
2017-06-04T09:17:56.925Z,18.10
2017-06-04T09:20:24.454Z,17.50
2017-06-04T09:22:52.763Z,17.10
2017-06-04T09:25:20.294Z,17.10
2017-06-04T09:27:48.624Z,17.90
2017-06-04T09:30:16.179Z,17.90
2017-06-04T09:32:43.703Z,18.20
2017-06-04T09:35:11.247Z,18.60
2017-06-04T09:37:39.539Z,18.80
2017-06-04T09:40:07.854Z,18.70
2017-06-04T09:42:35.375Z,18.60
2017-06-04T09:45:03.679Z,18.40
2017-06-04T09:47:31.208Z,18.40
2017-06-04T09:49:59.515Z,17.70
2017-06-04T09:52:27.039Z,17.70
2017-06-04T09:54:55.348Z,17.90
2017-06-04T09:57:22.866Z,17.90
2017-06-04T09:59:50.439Z,18.30
2017-06-04T10:02:17.965Z,19.20
2017-06-04T10:04:45.491Z,20.20
2017-06-04T10:07:13.804Z,22.30
2017-06-04T10:09:41.326Z,22.20
2017-06-04T10:12:09.640Z,23.10
2017-06-04T10:14:37.167Z,23.10
2017-06-04T10:17:04.702Z,23.60
2017-06-04T10:19:32.228Z,23.40
2017-06-04T10:21:59.794Z,23.10
2017-06-04T10:24:27.317Z,22.60
2017-06-04T10:26:54.839Z,22.40
2017-06-04T10:29:22.391Z,21.70
2017-06-04T10:31:49.913Z,21.40
2017-06-04T10:34:17.455Z,21.20
2017-06-04T10:36:44.986Z,21.60
2017-06-04T10:39:12.535Z,21.90
2017-06-04T10:41:40.059Z,21.80
2017-06-04T10:44:07.624Z,21.60
2017-06-04T10:46:35.148Z,21.60
2017-06-04T10:49:02.673Z,21.90
2017-06-04T10:51:30.239Z,22.40
2017-06-04T10:53:57.774Z,22.70
2017-06-04T10:56:25.316Z,22.60
2017-06-04T10:58:52.836Z,22.80
2017-06-04T11:01:20.380Z,23.30
2017-06-04T11:03:47.903Z,23.20
2017-06-04T11:06:15.475Z,23.30
2017-06-04T11:08:43.766Z,23.10
2017-06-04T11:11:11.292Z,23.10
2017-06-04T11:13:38.834Z,22.80
2017-06-04T11:16:06.359Z,22.30
2017-06-04T11:18:33.901Z,22.00
2017-06-04T11:21:01.431Z,21.90
2017-06-04T11:23:28.971Z,21.60
2017-06-04T11:25:56.491Z,21.40
2017-06-04T11:28:24.063Z,21.20
2017-06-04T11:30:51.607Z,20.90
2017-06-04T11:33:19.139Z,20.90
2017-06-04T11:35:46.682Z,20.90
2017-06-04T11:38:14.209Z,21.20
2017-06-04T11:40:41.748Z,21.60
2017-06-04T11:43:09.279Z,22.10
2017-06-04T11:45:36.854Z,22.20
2017-06-04T11:48:05.154Z,22.90
2017-06-04T11:50:32.687Z,22.90
2017-06-04T11:53:00.996Z,23.20
2017-06-04T11:55:28.528Z,23.20
2017-06-04T11:57:56.835Z,22.70
2017-06-04T12:00:24.359Z,22.70
2017-06-04T12:02:52.672Z,23.80
2017-06-04T12:05:20.194Z,23.70
2017-06-04T12:07:47.751Z,24.10
2017-06-04T12:10:15.283Z,24.10
2017-06-04T12:12:42.807Z,24.00
2017-06-04T12:15:10.351Z,24.60
2017-06-04T12:17:38.643Z,24.50
2017-06-04T12:20:06.187Z,24.50
2017-06-04T12:22:33.707Z,24.20
2017-06-04T12:25:01.250Z,24.20
2017-06-04T12:27:28.779Z,24.40
2017-06-04T12:29:56.311Z,24.80
2017-06-04T12:32:24.626Z,24.10
2017-06-04T12:34:52.151Z,24.10
2017-06-04T12:37:20.471Z,25.30
2017-06-04T12:39:47.995Z,25.30
2017-06-04T12:42:16.327Z,25.60
2017-06-04T12:44:43.854Z,25.60
2017-06-04T12:47:11.444Z,25.60
2017-06-04T12:49:38.982Z,25.30
2017-06-04T12:52:06.514Z,24.60
2017-06-04T12:54:34.055Z,23.90
2017-06-04T12:57:01.578Z,23.90
2017-06-04T12:59:29.150Z,24.20
2017-06-04T13:01:56.677Z,24.20
2017-06-04T13:04:24.199Z,24.40
2017-06-04T13:06:51.744Z,24.50
2017-06-04T13:09:19.272Z,24.70
2017-06-04T13:11:46.817Z,24.90
2017-06-04T13:14:15.103Z,24.70
2017-06-04T13:16:42.650Z,24.70
2017-06-04T13:19:10.174Z,24.60
2017-06-04T13:21:37.735Z,24.70
2017-06-04T13:24:05.256Z,25.00
2017-06-04T13:26:32.779Z,25.00
2017-06-04T13:29:00.326Z,25.20
2017-06-04T13:31:27.852Z,25.30
2017-06-04T13:33:55.395Z,25.60
2017-06-04T13:36:22.920Z,25.70
2017-06-04T13:38:51.232Z,25.60
2017-06-04T13:41:18.756Z,25.60
2017-06-04T13:43:46.314Z,25.30
2017-06-04T13:46:13.834Z,24.50
2017-06-04T13:48:41.363Z,23.80
2017-06-04T13:51:08.908Z,23.70
2017-06-04T13:53:37.200Z,24.10
2017-06-04T13:56:04.744Z,24.10
2017-06-04T13:58:32.271Z,24.50
2017-06-04T14:00:59.815Z,24.80
2017-06-04T14:03:27.335Z,25.00
2017-06-04T14:05:54.899Z,24.90
2017-06-04T14:08:22.427Z,24.70
2017-06-04T14:10:50.727Z,25.00
2017-06-04T14:13:18.276Z,25.10
2017-06-04T14:15:45.799Z,25.00
2017-06-04T14:18:13.352Z,24.80
2017-06-04T14:20:40.882Z,24.80
2017-06-04T14:23:08.422Z,24.60
2017-06-04T14:25:35.951Z,24.30
2017-06-04T14:28:03.518Z,24.40
2017-06-04T14:30:31.810Z,24.20
2017-06-04T14:32:59.335Z,24.20
2017-06-04T14:35:26.884Z,24.10
2017-06-04T14:37:54.415Z,24.30
2017-06-04T14:40:21.958Z,24.50
2017-06-04T14:42:49.487Z,24.60
2017-06-04T14:45:17.793Z,25.10
2017-06-04T14:47:45.319Z,25.10
2017-06-04T14:50:13.615Z,25.20
2017-06-04T14:52:41.162Z,25.10
2017-06-04T14:55:08.688Z,25.00
2017-06-04T14:57:36.239Z,24.90
2017-06-04T15:00:03.765Z,24.70
2017-06-04T15:02:31.326Z,24.50
2017-06-04T15:04:58.854Z,24.20
2017-06-04T15:07:26.383Z,23.70
2017-06-04T15:09:53.927Z,23.30
2017-06-04T15:12:21.456Z,23.10
2017-06-04T15:14:48.999Z,22.90
2017-06-04T15:17:16.523Z,22.70
2017-06-04T15:19:44.076Z,22.50
2017-06-04T15:22:11.600Z,22.60
2017-06-04T15:24:39.133Z,22.80
2017-06-04T15:27:06.674Z,23.20
2017-06-04T15:29:34.221Z,23.60
2017-06-04T15:32:01.775Z,23.80
2017-06-04T15:34:29.298Z,23.90
2017-06-04T15:36:56.852Z,23.80
2017-06-04T15:39:25.147Z,23.00
2017-06-04T15:41:52.711Z,22.90
2017-06-04T15:44:20.236Z,22.70
2017-06-04T15:46:47.756Z,22.60
2017-06-04T15:49:15.300Z,22.80
2017-06-04T15:51:42.822Z,23.00
2017-06-04T15:54:11.137Z,23.40
2017-06-04T15:56:38.664Z,23.40
2017-06-04T15:59:06.209Z,23.50
2017-06-04T16:01:33.730Z,23.40
2017-06-04T16:04:01.297Z,23.30
2017-06-04T16:06:28.819Z,23.00
2017-06-04T16:08:57.117Z,22.50
2017-06-04T16:11:24.664Z,22.50
2017-06-04T16:13:52.959Z,22.50
2017-06-04T16:16:20.502Z,22.50
2017-06-04T16:18:48.033Z,22.50
2017-06-04T16:21:15.580Z,22.60
2017-06-04T16:23:43.107Z,22.60
2017-06-04T16:26:10.672Z,22.70
2017-06-04T16:28:38.209Z,22.60
2017-06-04T16:31:05.742Z,22.50
2017-06-04T16:33:34.046Z,22.30
2017-06-04T16:36:01.575Z,22.20
2017-06-04T16:38:29.879Z,22.00
2017-06-04T16:40:57.402Z,21.90
2017-06-04T16:43:25.711Z,21.80
2017-06-04T16:45:53.240Z,21.80
2017-06-04T16:48:21.579Z,21.60
2017-06-04T16:50:49.101Z,21.60
2017-06-04T16:53:16.627Z,21.50
2017-06-04T16:55:44.175Z,21.40
2017-06-04T16:58:11.706Z,21.60
2017-06-04T17:00:39.261Z,21.60
2017-06-04T17:03:06.783Z,21.70
2017-06-04T17:05:34.342Z,21.70
2017-06-04T17:08:01.875Z,21.70
2017-06-04T17:10:29.394Z,21.80
2017-06-04T17:12:56.935Z,21.70
2017-06-04T17:15:24.454Z,21.70
2017-06-04T17:17:52.003Z,21.70
2017-06-04T17:20:20.290Z,21.50
2017-06-04T17:22:47.835Z,21.50
2017-06-04T17:25:16.128Z,21.40
2017-06-04T17:27:43.694Z,21.40
2017-06-04T17:30:11.227Z,21.30
2017-06-04T17:32:38.756Z,21.20
2017-06-04T17:35:06.305Z,21.20
2017-06-04T17:37:33.838Z,21.10
2017-06-04T17:40:01.382Z,21.00
2017-06-04T17:42:29.671Z,20.80
2017-06-04T17:44:57.215Z,20.90
2017-06-04T17:47:25.507Z,20.60
2017-06-04T17:49:53.820Z,20.50
2017-06-04T17:52:21.344Z,20.50
2017-06-04T17:54:49.680Z,20.40
2017-06-04T17:57:17.208Z,20.30
2017-06-04T17:59:44.738Z,20.30
2017-06-04T18:02:13.056Z,20.10
2017-06-04T18:04:40.579Z,20.10
2017-06-04T18:07:08.172Z,20.00
2017-06-04T18:09:35.704Z,19.90
2017-06-04T18:12:03.247Z,19.80
2017-06-04T18:14:31.538Z,19.50
2017-06-04T18:16:59.107Z,19.50
2017-06-04T18:19:26.627Z,19.30
2017-06-04T18:21:54.152Z,19.20
2017-06-04T18:24:21.701Z,19.20
2017-06-04T18:26:54.978Z,19.10
2017-06-04T18:29:22.528Z,18.90
2017-06-04T18:31:50.819Z,18.70
2017-06-04T18:34:18.363Z,18.70
2017-06-04T18:36:46.655Z,18.60
2017-06-04T18:39:14.224Z,18.50
2017-06-04T18:41:41.743Z,18.50
2017-06-04T18:44:09.268Z,18.40
2017-06-04T18:46:36.816Z,18.30
2017-06-04T18:49:04.338Z,18.30
2017-06-04T18:51:31.887Z,18.30
2017-06-04T18:53:59.409Z,18.20
2017-06-04T18:56:26.951Z,18.10
2017-06-04T18:58:54.479Z,18.00
2017-06-04T19:01:22.039Z,17.90
2017-06-04T19:03:50.337Z,17.70
2017-06-04T19:06:17.865Z,17.60
2017-06-04T19:08:45.408Z,17.50
2017-06-04T19:11:12.942Z,17.40
2017-06-04T19:13:40.483Z,17.30
2017-06-04T19:16:08.003Z,17.20
2017-06-04T19:18:35.548Z,17.00
2017-06-04T19:21:03.071Z,16.90
2017-06-04T19:23:30.640Z,16.90
2017-06-04T19:25:58.158Z,16.80
2017-06-04T19:28:26.450Z,16.60
2017-06-04T19:30:53.999Z,16.60
2017-06-04T19:33:22.286Z,16.60
2017-06-04T19:35:49.831Z,16.60
2017-06-04T19:38:18.118Z,16.50
2017-06-04T19:40:46.428Z,16.50
2017-06-04T19:43:13.948Z,16.50
2017-06-04T19:45:42.288Z,16.40
2017-06-04T19:48:09.811Z,16.30
2017-06-04T19:50:37.340Z,16.30
2017-06-04T19:53:04.888Z,16.20
2017-06-04T19:55:32.413Z,16.00
2017-06-04T19:57:59.954Z,15.90
2017-06-04T20:00:27.482Z,15.90
2017-06-04T20:02:55.059Z,15.90
2017-06-04T20:05:23.347Z,15.90
2017-06-04T20:07:50.883Z,15.90
2017-06-04T20:10:19.192Z,15.70
2017-06-04T20:12:46.719Z,15.70
2017-06-04T20:15:15.034Z,15.50
2017-06-04T20:17:42.556Z,15.50
2017-06-04T20:20:10.118Z,15.40
2017-06-04T20:22:37.643Z,15.40
2017-06-04T20:25:05.171Z,15.40
2017-06-04T20:27:32.714Z,15.40
2017-06-04T20:30:00.243Z,15.40
2017-06-04T20:32:27.787Z,15.40
2017-06-04T20:34:55.317Z,15.30
2017-06-04T20:37:22.865Z,15.30
2017-06-04T20:39:50.391Z,15.30
2017-06-04T20:42:17.960Z,15.30
2017-06-04T20:44:46.255Z,15.30
2017-06-04T20:47:13.786Z,15.30
2017-06-04T20:49:41.328Z,15.30
2017-06-04T20:52:08.858Z,15.20
2017-06-04T20:54:37.167Z,15.00
2017-06-04T20:57:04.714Z,15.00
2017-06-04T20:59:32.259Z,14.80
2017-06-04T21:02:00.554Z,14.40
2017-06-04T21:04:28.116Z,14.40
2017-06-04T21:06:55.642Z,14.20
2017-06-04T21:09:23.168Z,14.10
2017-06-04T21:11:50.716Z,14.10
2017-06-04T21:14:18.240Z,14.10
2017-06-04T21:16:46.555Z,14.10
2017-06-04T21:19:14.076Z,14.10
2017-06-04T21:21:41.627Z,14.10
2017-06-04T21:24:09.151Z,14.10
2017-06-04T21:26:37.482Z,14.10
2017-06-04T21:29:05.006Z,14.10
2017-06-04T21:31:32.526Z,14.10
2017-06-04T21:34:00.067Z,14.00
2017-06-04T21:36:27.591Z,13.80
2017-06-04T21:38:55.133Z,13.60
2017-06-04T21:41:23.420Z,13.50
2017-06-04T21:43:51.727Z,13.50
2017-06-04T21:46:19.257Z,13.50
2017-06-04T21:48:47.585Z,13.60
2017-06-04T21:51:15.112Z,13.60
2017-06-04T21:53:42.631Z,13.60
2017-06-04T21:56:10.178Z,13.40
2017-06-04T21:58:37.704Z,13.30
2017-06-04T22:01:05.247Z,13.20
2017-06-04T22:03:32.772Z,13.10
2017-06-04T22:06:00.314Z,12.90
2017-06-04T22:08:27.831Z,13.00
2017-06-04T22:10:55.400Z,13.00
2017-06-04T22:13:22.916Z,13.10
2017-06-04T22:15:51.209Z,13.20
2017-06-04T22:18:19.520Z,13.00
2017-06-04T22:20:47.043Z,13.00
2017-06-04T22:23:15.350Z,12.90
2017-06-04T22:25:42.872Z,12.80
2017-06-04T22:28:11.186Z,12.70
2017-06-04T22:30:38.719Z,12.70
2017-06-04T22:33:07.050Z,12.70
2017-06-04T22:35:34.574Z,12.70
2017-06-04T22:38:02.096Z,12.70
2017-06-04T22:40:29.635Z,12.60
2017-06-04T22:42:57.159Z,12.50
2017-06-04T22:45:24.710Z,12.40
2017-06-04T22:47:53.001Z,12.30
2017-06-04T22:50:20.543Z,12.20
2017-06-04T22:52:48.072Z,12.30
2017-06-04T22:55:15.638Z,12.30
2017-06-04T22:57:43.162Z,12.30
2017-06-04T23:00:10.681Z,12.30
2017-06-04T23:02:38.992Z,12.10
2017-06-04T23:05:06.518Z,12.10
2017-06-04T23:07:34.827Z,12.10
2017-06-04T23:10:02.350Z,12.10
2017-06-04T23:12:29.916Z,12.10
2017-06-04T23:14:58.206Z,12.20
2017-06-04T23:17:26.498Z,12.20
2017-06-04T23:19:54.036Z,12.10
2017-06-04T23:22:21.567Z,12.20
2017-06-04T23:24:49.112Z,12.20
2017-06-04T23:27:16.640Z,12.00
2017-06-04T23:29:44.957Z,11.70
2017-06-04T23:32:12.486Z,11.70
2017-06-04T23:34:40.011Z,11.70
2017-06-04T23:37:07.546Z,11.80
2017-06-04T23:39:35.075Z,11.80
2017-06-04T23:42:02.619Z,11.80
2017-06-04T23:44:30.148Z,11.80
2017-06-04T23:46:57.690Z,11.70
2017-06-04T23:49:25.223Z,11.60
2017-06-04T23:51:53.537Z,11.30
2017-06-04T23:54:21.063Z,11.30
2017-06-04T23:56:49.355Z,11.30
2017-06-04T23:59:16.900Z,11.30
